createdAt,value
2023-04-18T00:02:10.719Z,46.46
2023-04-18T00:04:38.736Z,46.31
2023-04-18T00:07:06.550Z,46.08
2023-04-18T00:09:35.683Z,46.14
2023-04-18T00:12:04.935Z,46.42
2023-04-18T00:14:34.681Z,46.41
2023-04-18T00:17:02.962Z,46.25
2023-04-18T00:19:30.718Z,46.30
2023-04-18T00:21:59.902Z,46.13
2023-04-18T00:24:27.658Z,46.52
2023-04-18T00:26:57.182Z,46.53
2023-04-18T00:29:24.977Z,46.57
2023-04-18T00:31:52.685Z,46.60
2023-04-18T00:34:20.411Z,46.70
2023-04-18T00:36:48.113Z,46.93
2023-04-18T00:39:15.808Z,46.50
2023-04-18T00:41:43.512Z,46.62
2023-04-18T00:44:12.883Z,46.60
2023-04-18T00:46:41.018Z,46.70
2023-04-18T00:49:09.069Z,46.77
2023-04-18T00:51:36.780Z,46.86
2023-04-18T00:54:05.220Z,46.80
2023-04-18T00:56:32.901Z,46.95
2023-04-18T00:59:01.518Z,47.00
2023-04-18T01:01:30.951Z,47.34
2023-04-18T01:03:58.704Z,47.57
2023-04-18T01:06:26.978Z,47.59
2023-04-18T01:08:54.911Z,47.61
2023-04-18T01:11:22.581Z,47.66
2023-04-18T01:14:00.534Z,47.85
2023-04-18T01:16:32.631Z,48.05
2023-04-18T01:19:00.443Z,48.10
2023-04-18T01:21:31.142Z,47.98
2023-04-18T01:24:03.310Z,48.00
2023-04-18T01:26:36.116Z,48.33
2023-04-18T01:29:04.012Z,48.20
2023-04-18T01:31:31.918Z,48.45
2023-04-18T01:34:01.660Z,48.53
2023-04-18T01:36:29.958Z,48.50
2023-04-18T01:38:59.782Z,48.50
2023-04-18T01:41:29.916Z,48.77
2023-04-18T01:44:02.885Z,49.30
2023-04-18T01:46:31.164Z,49.24
2023-04-18T01:49:00.105Z,49.33
2023-04-18T01:51:28.574Z,49.44
2023-04-18T01:53:58.214Z,49.20
2023-04-18T01:56:26.393Z,49.52
2023-04-18T01:58:54.293Z,49.73
2023-04-18T02:01:27.188Z,49.39
2023-04-18T02:03:55.558Z,49.68
2023-04-18T02:06:26.234Z,49.89
2023-04-18T02:08:55.866Z,49.88
2023-04-18T02:11:25.914Z,50.18
2023-04-18T02:13:55.824Z,50.30
2023-04-18T02:16:28.743Z,49.97
2023-04-18T02:18:56.708Z,50.36
2023-04-18T02:21:24.636Z,50.20
2023-04-18T02:23:52.404Z,50.63
2023-04-18T02:26:22.244Z,50.43
2023-04-18T02:28:52.195Z,50.49
2023-04-18T02:31:21.951Z,50.52
2023-04-18T02:33:54.750Z,51.26
2023-04-18T02:36:22.540Z,51.25
2023-04-18T02:38:50.341Z,51.50
2023-04-18T02:41:19.637Z,51.40
2023-04-18T02:43:47.413Z,51.45
2023-04-18T02:46:17.594Z,51.81
2023-04-18T02:48:47.337Z,51.45
2023-04-18T02:51:20.099Z,51.97
2023-04-18T02:53:48.347Z,52.03
2023-04-18T02:56:17.142Z,52.00
2023-04-18T02:58:45.108Z,52.18
2023-04-18T03:01:12.899Z,52.70
2023-04-18T03:03:41.215Z,52.36
2023-04-18T03:06:09.480Z,52.81
2023-04-18T03:08:42.355Z,52.90
2023-04-18T03:11:12.225Z,53.36
2023-04-18T03:13:42.011Z,53.15
2023-04-18T03:16:10.090Z,53.05
2023-04-18T03:18:38.109Z,53.20
2023-04-18T03:21:06.482Z,53.49
2023-04-18T03:23:36.035Z,53.58
2023-04-18T03:26:07.558Z,53.83
2023-04-18T03:28:35.986Z,53.81
2023-04-18T03:31:05.679Z,53.91
2023-04-18T03:33:33.560Z,54.18
2023-04-18T03:36:03.658Z,54.14
2023-04-18T03:38:33.726Z,54.39
2023-04-18T03:41:01.740Z,54.61
2023-04-18T03:43:32.944Z,54.87
2023-04-18T03:46:02.807Z,55.03
2023-04-18T03:48:31.127Z,55.24
2023-04-18T03:51:00.953Z,55.10
2023-04-18T03:53:29.145Z,55.49
2023-04-18T03:55:57.559Z,55.71
2023-04-18T03:58:27.232Z,55.62
2023-04-18T04:00:58.319Z,56.60
2023-04-18T04:03:27.893Z,56.18
2023-04-18T04:05:56.384Z,56.34
2023-04-18T04:08:25.928Z,56.44
2023-04-18T04:10:57.362Z,56.55
2023-04-18T04:13:25.353Z,56.61
2023-04-18T04:15:53.423Z,56.68
2023-04-18T04:18:25.444Z,57.07
2023-04-18T04:20:53.526Z,57.20
2023-04-18T04:23:22.694Z,57.70
2023-04-18T04:25:53.146Z,57.55
2023-04-18T04:28:22.752Z,58.04
2023-04-18T04:30:50.873Z,57.94
2023-04-18T04:33:19.456Z,57.94
2023-04-18T04:35:49.642Z,58.38
2023-04-18T04:38:19.967Z,57.76
2023-04-18T04:40:47.679Z,58.27
2023-04-18T04:43:15.816Z,58.62
2023-04-18T04:45:44.750Z,58.55
2023-04-18T04:48:14.673Z,58.55
2023-04-18T04:50:43.319Z,58.78
2023-04-18T04:53:12.864Z,58.77
2023-04-18T04:55:41.463Z,58.82
2023-04-18T04:58:09.367Z,59.14
2023-04-18T05:00:37.088Z,59.29
2023-04-18T05:03:05.050Z,59.50
2023-04-18T05:05:33.137Z,59.69
2023-04-18T05:08:00.968Z,59.91
2023-04-18T05:10:32.714Z,59.78
2023-04-18T05:13:00.464Z,60.24
2023-04-18T05:15:28.182Z,60.21
2023-04-18T05:17:55.858Z,60.19
2023-04-18T05:20:23.870Z,60.53
2023-04-18T05:22:51.621Z,60.36
2023-04-18T05:25:19.547Z,60.45
2023-04-18T05:27:48.687Z,60.76
2023-04-18T05:30:16.453Z,60.69
2023-04-18T05:32:44.507Z,60.66
2023-04-18T05:35:12.527Z,60.75
2023-04-18T05:37:40.236Z,61.04
2023-04-18T05:40:12.182Z,60.93
2023-04-18T05:42:40.145Z,60.81
2023-04-18T05:45:10.387Z,61.09
2023-04-18T05:47:38.322Z,61.16
2023-04-18T05:50:07.341Z,61.34
2023-04-18T05:52:35.161Z,61.57
2023-04-18T05:55:04.513Z,61.87
2023-04-18T05:57:32.853Z,62.04
2023-04-18T06:00:00.543Z,62.08
2023-04-18T06:02:32.179Z,62.09
2023-04-18T06:05:00.169Z,62.40
2023-04-18T06:07:28.162Z,62.10
2023-04-18T06:09:56.701Z,62.89
2023-04-18T06:12:24.494Z,62.10
2023-04-18T06:14:52.258Z,62.15
2023-04-18T06:17:21.487Z,62.09
2023-04-18T06:19:50.895Z,62.78
2023-04-18T06:22:18.647Z,62.81
2023-04-18T06:24:46.436Z,63.25
2023-04-18T06:27:27.734Z,63.62
2023-04-18T06:29:58.089Z,63.45
2023-04-18T06:32:26.146Z,63.66
2023-04-18T06:34:55.318Z,62.82
2023-04-18T06:37:23.102Z,63.29
2023-04-18T06:39:50.857Z,63.32
2023-04-18T06:42:20.211Z,63.39
2023-04-18T06:44:49.320Z,63.07
2023-04-18T06:47:17.207Z,62.78
2023-04-18T06:49:45.167Z,63.61
2023-04-18T06:52:14.436Z,63.53
2023-04-18T06:54:42.104Z,63.65
2023-04-18T06:57:10.074Z,63.83
2023-04-18T06:59:37.689Z,63.94
2023-04-18T07:02:05.581Z,64.03
2023-04-18T07:04:33.315Z,64.15
2023-04-18T07:07:01.439Z,63.85
2023-04-18T07:09:30.733Z,64.18
2023-04-18T07:11:58.551Z,64.04
2023-04-18T07:14:26.467Z,64.25
2023-04-18T07:16:54.326Z,64.32
2023-04-18T07:19:22.057Z,64.34
2023-04-18T07:21:49.729Z,64.57
2023-04-18T07:24:17.450Z,64.35
2023-04-18T07:26:46.753Z,64.86
2023-04-18T07:29:14.431Z,64.75
2023-04-18T07:31:42.187Z,65.21
2023-04-18T07:34:10.123Z,64.67
2023-04-18T07:36:38.067Z,64.36
2023-04-18T07:39:05.906Z,64.49
2023-04-18T07:41:33.674Z,64.93
2023-04-18T07:44:02.836Z,65.39
2023-04-18T07:46:32.338Z,64.83
2023-04-18T07:49:00.034Z,64.52
2023-04-18T07:51:31.461Z,64.72
2023-04-18T07:53:59.614Z,64.48
2023-04-18T07:56:27.422Z,65.01
2023-04-18T07:58:55.630Z,64.86
2023-04-18T08:01:27.121Z,65.12
2023-04-18T08:03:56.633Z,64.72
2023-04-18T08:06:24.494Z,65.11
2023-04-18T08:08:52.454Z,65.37
2023-04-18T08:11:20.110Z,64.98
2023-04-18T08:13:47.866Z,65.02
2023-04-18T08:16:17.313Z,64.99
2023-04-18T08:18:46.777Z,64.92
2023-04-18T08:21:14.513Z,65.13
2023-04-18T08:23:42.390Z,64.74
2023-04-18T08:26:10.117Z,64.47
2023-04-18T08:28:37.809Z,64.83
2023-04-18T08:31:05.860Z,64.03
2023-04-18T08:33:33.587Z,63.88
2023-04-18T08:36:02.642Z,64.21
2023-04-18T08:38:30.705Z,64.23
2023-04-18T08:40:58.353Z,64.21
2023-04-18T08:43:26.103Z,64.41
2023-04-18T08:45:59.325Z,63.63
2023-04-18T08:48:27.805Z,64.20
2023-04-18T08:50:58.143Z,64.15
2023-04-18T08:53:28.017Z,64.19
2023-04-18T08:55:56.349Z,64.07
2023-04-18T08:58:27.066Z,64.20
2023-04-18T09:00:55.572Z,64.64
2023-04-18T09:03:40.032Z,65.26
2023-04-18T09:06:09.482Z,64.22
2023-04-18T09:08:39.123Z,64.96
2023-04-18T09:11:26.477Z,64.09
2023-04-18T09:13:56.298Z,63.54
2023-04-18T09:16:24.786Z,63.15
2023-04-18T09:19:13.725Z,63.53
2023-04-18T09:21:44.337Z,63.05
2023-04-18T09:24:23.710Z,63.41
2023-04-18T09:26:53.759Z,62.85
2023-04-18T09:29:22.988Z,62.85
2023-04-18T09:31:59.774Z,62.22
2023-04-18T09:34:28.148Z,63.82
2023-04-18T09:37:14.315Z,63.32
2023-04-18T09:39:44.701Z,63.36
2023-04-18T09:42:13.897Z,63.37
2023-04-18T09:44:59.929Z,62.92
2023-04-18T09:47:28.841Z,63.04
2023-04-18T09:49:56.656Z,62.91
2023-04-18T09:52:25.394Z,62.29
2023-04-18T09:54:59.303Z,63.37
2023-04-18T09:57:28.888Z,62.81
2023-04-18T10:00:02.902Z,61.94
2023-04-18T10:02:35.842Z,62.38
2023-04-18T10:05:05.643Z,62.34
2023-04-18T10:07:33.851Z,62.44
2023-04-18T10:10:02.954Z,62.69
2023-04-18T10:12:30.705Z,62.76
2023-04-18T10:14:58.887Z,62.56
2023-04-18T10:17:29.621Z,62.23
2023-04-18T10:20:10.133Z,62.76
2023-04-18T10:22:37.871Z,63.24
2023-04-18T10:25:08.137Z,63.38
2023-04-18T10:27:55.567Z,61.33
2023-04-18T10:30:53.504Z,62.05
2023-04-18T10:33:30.345Z,61.69
2023-04-18T10:36:01.319Z,61.69
2023-04-18T10:38:29.211Z,61.35
2023-04-18T10:41:23.285Z,62.01
2023-04-18T10:44:27.664Z,61.59
2023-04-18T10:47:32.226Z,61.25
2023-04-18T10:50:01.559Z,60.69
2023-04-18T10:52:30.385Z,61.00
2023-04-18T10:55:11.803Z,60.45
2023-04-18T10:57:42.921Z,59.57
2023-04-18T11:00:12.636Z,60.41
2023-04-18T11:02:41.345Z,60.70
2023-04-18T11:05:09.988Z,60.11
2023-04-18T11:07:39.248Z,60.93
2023-04-18T11:10:09.091Z,60.67
2023-04-18T11:12:38.410Z,60.32
2023-04-18T11:15:14.400Z,60.29
2023-04-18T11:17:42.406Z,60.35
2023-04-18T11:20:12.805Z,61.07
2023-04-18T11:22:46.634Z,60.60
2023-04-18T11:25:15.281Z,60.65
2023-04-18T11:27:44.961Z,59.97
2023-04-18T11:30:15.922Z,58.84
2023-04-18T11:32:43.846Z,58.52
2023-04-18T11:35:12.647Z,59.45
2023-04-18T11:37:41.481Z,57.77
2023-04-18T11:40:10.651Z,57.53
2023-04-18T11:42:40.027Z,56.63
2023-04-18T11:45:12.244Z,56.31
2023-04-18T11:47:42.933Z,57.44
2023-04-18T11:50:12.232Z,58.05
2023-04-18T11:52:41.165Z,57.17
2023-04-18T11:55:14.206Z,57.16
2023-04-18T12:02:58.659Z,55.83
2023-04-18T12:05:35.210Z,55.88
2023-04-18T12:08:14.545Z,56.07
2023-04-18T12:10:53.122Z,55.27
2023-04-18T12:13:25.715Z,55.99
2023-04-18T12:15:58.328Z,55.99
2023-04-18T12:18:26.779Z,56.17
2023-04-18T12:20:58.695Z,56.60
2023-04-18T12:23:31.178Z,55.66
2023-04-18T12:26:05.006Z,57.36
2023-04-18T12:28:33.506Z,55.48
2023-04-18T12:31:02.865Z,56.62
2023-04-18T12:33:31.735Z,56.00
2023-04-18T12:35:59.978Z,55.84
2023-04-18T12:38:27.711Z,55.95
2023-04-18T12:40:55.463Z,57.25
2023-04-18T12:43:23.266Z,57.41
2023-04-18T12:45:51.078Z,57.02
2023-04-18T12:48:20.196Z,57.00
2023-04-18T12:50:47.906Z,56.06
2023-04-18T12:53:15.789Z,57.13
2023-04-18T12:55:43.617Z,56.40
2023-04-18T12:58:11.278Z,54.42
2023-04-18T13:00:38.993Z,54.40
2023-04-18T13:03:06.842Z,54.66
2023-04-18T13:05:36.288Z,54.90
2023-04-18T13:08:16.092Z,54.58
2023-04-18T13:10:45.861Z,53.73
2023-04-18T13:13:13.486Z,53.02
2023-04-18T13:15:41.253Z,54.53
2023-04-18T13:18:09.041Z,54.26
2023-04-18T13:20:38.151Z,53.51
2023-04-18T13:23:06.045Z,52.44
2023-04-18T13:25:33.799Z,54.89
2023-04-18T13:28:01.525Z,53.08
2023-04-18T13:30:29.322Z,52.52
2023-04-18T13:32:57.073Z,53.12
2023-04-18T13:35:25.101Z,51.48
2023-04-18T13:37:56.115Z,52.33
2023-04-18T13:40:24.167Z,51.30
2023-04-18T13:42:51.852Z,50.74
2023-04-18T13:45:20.623Z,51.09
2023-04-18T13:47:48.376Z,51.31
2023-04-18T13:50:16.110Z,51.18
2023-04-18T13:52:43.738Z,50.58
2023-04-18T13:55:12.835Z,51.22
2023-04-18T13:57:41.197Z,51.43
2023-04-18T14:00:13.068Z,50.92
2023-04-18T14:02:40.988Z,51.34
2023-04-18T14:05:09.697Z,50.92
2023-04-18T14:07:38.301Z,50.00
2023-04-18T14:10:06.898Z,51.25
2023-04-18T14:12:35.902Z,50.83
2023-04-18T14:15:03.624Z,51.07
2023-04-18T14:17:31.375Z,50.84
2023-04-18T14:19:59.113Z,49.97
2023-04-18T14:22:26.941Z,49.46
2023-04-18T14:24:56.114Z,49.01
2023-04-18T14:27:25.403Z,48.89
2023-04-18T14:29:54.457Z,49.16
2023-04-18T14:32:22.132Z,49.12
2023-04-18T14:34:49.754Z,49.29
2023-04-18T14:37:17.833Z,48.34
2023-04-18T14:39:46.118Z,48.39
2023-04-18T14:42:13.838Z,48.27
2023-04-18T14:44:41.891Z,48.66
2023-04-18T14:47:11.255Z,49.57
2023-04-18T14:49:39.078Z,48.52
2023-04-18T14:52:06.841Z,49.28
2023-04-18T14:54:34.442Z,48.74
2023-04-18T14:57:02.184Z,47.67
2023-04-18T14:59:30.213Z,48.98
2023-04-18T15:01:58.054Z,48.54
2023-04-18T15:04:28.110Z,48.82
2023-04-18T15:06:56.362Z,47.48
2023-04-18T15:09:24.016Z,47.97
2023-04-18T15:11:51.964Z,47.37
2023-04-18T15:14:19.791Z,47.44
2023-04-18T15:16:50.245Z,47.88
2023-04-18T15:19:18.105Z,46.99
2023-04-18T15:21:47.206Z,47.10
2023-04-18T15:24:15.488Z,46.25
2023-04-18T15:26:43.407Z,48.18
2023-04-18T15:29:11.459Z,47.76
2023-04-18T15:33:11.807Z,46.39
2023-04-18T15:35:39.495Z,47.22
2023-04-18T15:40:17.137Z,47.25
2023-04-18T15:43:07.207Z,47.68
2023-04-18T15:45:46.963Z,45.68
2023-04-18T15:48:16.792Z,46.64
2023-04-18T15:50:58.531Z,47.01
2023-04-18T15:53:36.903Z,46.99
2023-04-18T15:56:06.398Z,47.10
2023-04-18T15:58:37.204Z,47.44
2023-04-18T16:01:17.175Z,46.55
2023-04-18T16:03:52.039Z,46.24
2023-04-18T16:06:23.454Z,47.22
2023-04-18T16:08:51.504Z,46.64
2023-04-18T16:11:21.372Z,47.38
2023-04-18T16:13:50.429Z,47.18
2023-04-18T16:16:18.126Z,48.11
2023-04-18T16:18:45.886Z,47.52
2023-04-18T16:21:14.582Z,47.24
2023-04-18T16:23:42.712Z,45.97
2023-04-18T16:26:10.522Z,46.20
2023-04-18T16:28:39.646Z,46.58
2023-04-18T16:31:07.646Z,47.67
2023-04-18T16:33:35.598Z,47.43
2023-04-18T16:36:03.621Z,47.33
2023-04-18T16:39:21.329Z,47.14
2023-04-18T16:41:49.030Z,47.04
2023-04-18T16:44:16.716Z,46.62
2023-04-18T16:46:44.543Z,46.89
2023-04-18T16:49:12.376Z,46.32
2023-04-18T16:51:40.417Z,45.74
2023-04-18T16:54:08.721Z,46.31
2023-04-18T16:56:37.784Z,46.84
2023-04-18T17:00:26.142Z,46.38
2023-04-18T17:02:55.730Z,46.70
2023-04-18T17:05:25.408Z,47.00
2023-04-18T17:07:53.254Z,46.91
2023-04-18T17:10:20.999Z,46.85
2023-04-18T17:12:49.379Z,46.89
2023-04-18T17:15:18.912Z,46.66
2023-04-18T17:17:47.950Z,47.35
2023-04-18T17:20:17.007Z,47.77
2023-04-18T17:22:44.868Z,46.88
2023-04-18T17:25:12.666Z,47.49
2023-04-18T17:27:40.527Z,46.86
2023-04-18T17:30:09.326Z,47.22
2023-04-18T17:32:41.875Z,46.89
2023-04-18T17:35:11.621Z,48.17
2023-04-18T17:37:39.263Z,46.82
2023-04-18T17:40:09.726Z,46.41
2023-04-18T17:42:37.681Z,47.65
2023-04-18T17:45:06.087Z,47.37
2023-04-18T17:47:33.812Z,48.03
2023-04-18T17:50:01.858Z,48.36
2023-04-18T17:52:31.159Z,48.32
2023-04-18T17:54:59.716Z,48.92
2023-04-18T17:57:27.680Z,48.29
2023-04-18T17:59:55.397Z,48.38
2023-04-18T18:02:23.585Z,48.55
2023-04-18T18:04:51.543Z,48.14
2023-04-18T18:07:19.373Z,48.89
2023-04-18T18:09:48.572Z,49.35
2023-04-18T18:12:16.418Z,49.06
2023-04-18T18:14:44.033Z,48.99
2023-04-18T18:17:12.438Z,49.43
2023-04-18T18:19:40.287Z,48.91
2023-04-18T18:22:08.460Z,49.08
2023-04-18T18:24:36.164Z,49.25
2023-04-18T18:27:06.088Z,49.36
2023-04-18T18:29:33.839Z,50.08
2023-04-18T18:32:01.662Z,49.58
2023-04-18T18:34:31.958Z,49.98
2023-04-18T18:36:59.683Z,49.96
2023-04-18T18:39:27.353Z,50.64
2023-04-18T18:41:54.949Z,51.17
2023-04-18T18:44:23.983Z,50.29
2023-04-18T18:46:51.727Z,51.34
2023-04-18T18:49:19.510Z,50.68
2023-04-18T18:51:47.124Z,51.16
2023-04-18T18:54:14.793Z,51.39
2023-04-18T18:56:42.797Z,51.12
2023-04-18T18:59:10.483Z,51.38
2023-04-18T19:01:39.709Z,51.43
2023-04-18T19:04:07.833Z,51.53
2023-04-18T19:06:35.669Z,51.88
2023-04-18T19:09:03.935Z,52.24
2023-04-18T19:11:31.709Z,51.39
2023-04-18T19:13:59.391Z,51.84
2023-04-18T19:16:27.115Z,52.17
2023-04-18T19:18:56.237Z,51.31
2023-04-18T19:21:23.967Z,51.15
2023-04-18T19:23:51.763Z,51.43
2023-04-18T19:26:19.605Z,51.64
2023-04-18T19:28:47.406Z,51.62
2023-04-18T19:31:15.216Z,51.44
2023-04-18T19:33:42.953Z,51.41
2023-04-18T19:36:12.016Z,51.74
2023-04-18T19:38:39.869Z,51.39
2023-04-18T19:41:07.612Z,51.53
2023-04-18T19:43:35.749Z,51.77
2023-04-18T19:46:03.470Z,51.60
2023-04-18T19:48:31.191Z,51.78
2023-04-18T19:50:58.849Z,51.89
2023-04-18T19:53:27.973Z,52.67
2023-04-18T19:55:56.027Z,52.06
2023-04-18T19:58:34.583Z,52.08
2023-04-18T20:01:02.375Z,52.04
2023-04-18T20:03:30.296Z,52.59
2023-04-18T20:05:58.106Z,52.38
2023-04-18T20:08:27.238Z,52.49
2023-04-18T20:10:54.842Z,52.88
2023-04-18T20:13:22.460Z,53.01
2023-04-18T20:15:50.191Z,52.65
2023-04-18T20:18:18.134Z,53.22
2023-04-18T20:20:45.892Z,52.94
2023-04-18T20:23:14.440Z,52.87
2023-04-18T20:25:44.129Z,52.76
2023-04-18T20:28:12.126Z,52.95
2023-04-18T20:30:39.925Z,53.09
2023-04-18T20:33:07.668Z,52.86
2023-04-18T20:35:36.196Z,53.22
2023-04-18T20:38:03.883Z,52.98
2023-04-18T20:40:33.244Z,53.41
2023-04-18T20:43:03.309Z,53.37
2023-04-18T20:45:31.878Z,53.49
2023-04-18T20:47:59.850Z,53.41
2023-04-18T20:50:27.585Z,53.19
2023-04-18T20:52:55.350Z,53.64
2023-04-18T20:55:23.099Z,53.62
2023-04-18T20:57:50.803Z,53.58
2023-04-18T21:00:20.135Z,53.41
2023-04-18T21:02:48.067Z,53.69
2023-04-18T21:05:16.155Z,53.24
2023-04-18T21:07:45.290Z,53.83
2023-04-18T21:10:14.038Z,53.54
2023-04-18T21:12:41.776Z,53.93
2023-04-18T21:15:10.191Z,53.83
2023-04-18T21:17:39.352Z,53.72
2023-04-18T21:20:09.080Z,53.91
2023-04-18T21:22:36.766Z,53.96
2023-04-18T21:25:05.093Z,54.01
2023-04-18T21:27:32.849Z,54.41
2023-04-18T21:30:01.774Z,54.19
2023-04-18T21:32:30.535Z,54.34
2023-04-18T21:35:00.643Z,54.61
2023-04-18T21:37:28.356Z,54.66
2023-04-18T21:39:55.996Z,54.72
2023-04-18T21:42:23.730Z,55.13
2023-04-18T21:44:51.452Z,54.95
2023-04-18T21:47:19.107Z,55.17
2023-04-18T21:49:46.737Z,55.52
2023-04-18T21:52:15.849Z,55.61
2023-04-18T21:54:43.551Z,55.38
2023-04-18T21:57:11.310Z,55.83
2023-04-18T21:59:38.936Z,56.26
2023-04-18T22:02:06.853Z,56.47
2023-04-18T22:04:34.756Z,56.38
2023-04-18T22:07:02.497Z,56.33
2023-04-18T22:09:33.886Z,56.64
2023-04-18T22:12:03.346Z,56.78
2023-04-18T22:14:31.987Z,56.84
2023-04-18T22:17:00.056Z,56.70
2023-04-18T22:19:29.348Z,56.94
2023-04-18T22:21:57.048Z,57.20
2023-04-18T22:24:25.979Z,57.15
2023-04-18T22:26:55.153Z,57.66
2023-04-18T22:29:22.839Z,57.67
2023-04-18T22:31:50.864Z,57.62
2023-04-18T22:34:18.610Z,57.82
2023-04-18T22:36:46.306Z,57.99
2023-04-18T22:39:14.004Z,58.28
2023-04-18T22:41:41.782Z,58.29
2023-04-18T22:44:10.877Z,58.58
2023-04-18T22:46:39.259Z,58.68
2023-04-18T22:49:07.285Z,59.05
2023-04-18T22:51:34.935Z,58.88
2023-04-18T22:54:02.609Z,59.56
2023-04-18T22:56:30.283Z,59.76
2023-04-18T22:58:58.001Z,59.83
2023-04-18T23:01:27.091Z,60.12
2023-04-18T23:03:55.184Z,60.31
2023-04-18T23:06:23.105Z,60.85
2023-04-18T23:08:50.967Z,61.12
2023-04-18T23:11:18.628Z,61.12
2023-04-18T23:13:46.308Z,61.28
2023-04-18T23:16:14.024Z,61.23
2023-04-18T23:18:43.167Z,61.48
2023-04-18T23:21:10.843Z,61.81
2023-04-18T23:23:38.482Z,61.92
2023-04-18T23:26:13.648Z,61.65
2023-04-18T23:28:41.620Z,62.10
2023-04-18T23:31:09.797Z,62.17
2023-04-18T23:33:37.501Z,62.35
2023-04-18T23:36:07.618Z,62.36
2023-04-18T23:38:37.191Z,62.60
2023-04-18T23:41:05.015Z,62.71
2023-04-18T23:43:33.093Z,62.84
2023-04-18T23:46:00.900Z,62.67
2023-04-18T23:48:28.545Z,62.93
2023-04-18T23:50:56.183Z,62.96
2023-04-18T23:53:25.392Z,62.90
2023-04-18T23:55:54.414Z,63.68
2023-04-18T23:58:22.146Z,63.19
